createdAt,value
2017-09-22T00:02:11.137Z,99.90
2017-09-22T00:04:39.099Z,99.90
2017-09-22T00:07:07.074Z,99.90
2017-09-22T00:09:35.896Z,99.90
2017-09-22T00:12:03.767Z,99.90
2017-09-22T00:14:31.680Z,99.90
2017-09-22T00:17:00.556Z,99.90
2017-09-22T00:19:28.420Z,99.90
2017-09-22T00:21:56.403Z,99.90
2017-09-22T00:24:24.244Z,99.90
2017-09-22T00:26:52.111Z,99.90
2017-09-22T00:29:19.996Z,99.90
2017-09-22T00:31:47.805Z,99.90
2017-09-22T00:34:15.654Z,99.90
2017-09-22T00:36:43.458Z,99.90
2017-09-22T00:39:11.259Z,99.90
2017-09-22T00:41:39.068Z,99.90
2017-09-22T00:44:07.004Z,99.90
2017-09-22T00:46:34.928Z,99.90
2017-09-22T00:49:03.014Z,99.90
2017-09-22T00:51:30.779Z,99.90
2017-09-22T00:53:58.529Z,99.90
2017-09-22T00:56:26.173Z,99.90
2017-09-22T00:58:53.917Z,99.90
2017-09-22T01:01:21.637Z,99.90
2017-09-22T01:03:49.381Z,99.90
2017-09-22T01:06:17.247Z,99.90
2017-09-22T01:08:44.984Z,99.90
2017-09-22T01:11:12.994Z,99.90
2017-09-22T01:13:40.862Z,99.90
2017-09-22T01:16:09.155Z,99.90
2017-09-22T01:18:37.266Z,99.90
2017-09-22T01:21:05.355Z,99.90
2017-09-22T01:23:33.685Z,99.90
2017-09-22T01:26:01.944Z,99.90
2017-09-22T01:28:30.290Z,99.90
2017-09-22T01:30:58.375Z,99.90
2017-09-22T01:33:26.270Z,99.90
2017-09-22T01:35:54.231Z,99.90
2017-09-22T01:38:21.972Z,99.90
2017-09-22T01:40:49.859Z,99.90
2017-09-22T01:43:18.599Z,99.90
2017-09-22T01:45:46.341Z,99.90
2017-09-22T01:48:14.825Z,99.90
2017-09-22T01:50:42.655Z,99.90
2017-09-22T01:53:10.611Z,99.90
2017-09-22T01:55:38.450Z,99.90
2017-09-22T01:58:08.496Z,99.90
2017-09-22T02:00:36.379Z,99.90
2017-09-22T02:03:05.200Z,99.90
2017-09-22T02:05:33.970Z,99.90
2017-09-22T02:08:01.907Z,99.90
2017-09-22T02:10:29.786Z,99.90
2017-09-22T02:12:57.608Z,99.90
2017-09-22T02:15:25.480Z,99.90
2017-09-22T02:17:53.407Z,99.90
2017-09-22T02:20:21.232Z,99.90
2017-09-22T02:22:49.995Z,99.90
2017-09-22T02:25:18.007Z,99.90
2017-09-22T02:27:45.901Z,99.90
2017-09-22T02:30:14.035Z,99.90
2017-09-22T02:32:42.046Z,99.90
2017-09-22T02:35:09.846Z,99.90
2017-09-22T02:37:37.663Z,99.90
2017-09-22T02:40:05.569Z,99.90
2017-09-22T02:42:34.161Z,99.90
2017-09-22T02:45:01.958Z,99.90
2017-09-22T02:47:29.966Z,99.90
2017-09-22T02:49:57.793Z,99.90
2017-09-22T02:52:25.766Z,99.90
2017-09-22T02:54:54.695Z,99.90
2017-09-22T02:57:23.576Z,99.90
2017-09-22T02:59:51.724Z,99.90
2017-09-22T03:02:20.800Z,99.90
2017-09-22T03:04:48.801Z,99.90
2017-09-22T03:07:16.607Z,99.90
2017-09-22T03:09:44.915Z,99.90
2017-09-22T03:12:12.741Z,99.90
2017-09-22T03:14:40.573Z,99.90
2017-09-22T03:17:08.351Z,99.90
2017-09-22T03:19:36.092Z,99.90
2017-09-22T03:22:03.955Z,99.90
2017-09-22T03:24:31.630Z,99.90
2017-09-22T03:27:00.164Z,99.90
2017-09-22T03:29:27.823Z,99.90
2017-09-22T03:31:55.521Z,99.90
2017-09-22T03:34:23.248Z,99.90
2017-09-22T03:36:51.047Z,99.90
2017-09-22T03:39:20.372Z,99.90
2017-09-22T03:41:49.699Z,99.90
2017-09-22T03:44:18.150Z,99.90
2017-09-22T03:46:47.397Z,99.90
2017-09-22T03:49:16.235Z,99.90
2017-09-22T03:51:45.869Z,99.90
2017-09-22T03:54:16.573Z,99.90
2017-09-22T03:56:50.721Z,99.90
2017-09-22T03:59:24.908Z,99.90
2017-09-22T04:01:54.142Z,99.90
2017-09-22T04:04:22.570Z,99.90
2017-09-22T04:06:51.305Z,99.90
2017-09-22T04:09:19.768Z,99.90
2017-09-22T04:11:48.690Z,99.90
2017-09-22T04:14:17.298Z,99.90
2017-09-22T04:16:45.863Z,99.90
2017-09-22T04:19:14.945Z,99.90
2017-09-22T04:21:44.383Z,99.90
2017-09-22T04:24:13.611Z,99.90
2017-09-22T04:26:42.927Z,99.90
2017-09-22T04:29:11.962Z,99.90
2017-09-22T04:31:41.425Z,99.90
2017-09-22T04:34:10.757Z,99.90
2017-09-22T04:36:40.501Z,99.90
2017-09-22T04:39:09.946Z,99.90
2017-09-22T04:41:38.587Z,99.90
2017-09-22T04:44:07.671Z,99.90
2017-09-22T04:46:38.082Z,99.90
2017-09-22T04:49:08.079Z,99.90
2017-09-22T04:51:38.324Z,99.90
2017-09-22T04:54:06.155Z,99.90
2017-09-22T04:56:33.870Z,99.90
2017-09-22T04:59:01.548Z,99.90
2017-09-22T05:01:29.271Z,99.90
2017-09-22T05:03:56.959Z,99.90
2017-09-22T05:06:24.624Z,99.90
2017-09-22T05:08:52.343Z,99.90
2017-09-22T05:11:20.353Z,99.90
2017-09-22T05:13:48.100Z,99.90
2017-09-22T05:16:15.878Z,99.90
2017-09-22T05:18:43.644Z,99.90
2017-09-22T05:21:11.889Z,99.90
2017-09-22T05:23:40.450Z,99.90
2017-09-22T05:26:08.234Z,99.90
2017-09-22T05:28:36.585Z,99.90
2017-09-22T05:31:04.381Z,99.90
2017-09-22T05:33:38.297Z,99.90
2017-09-22T05:36:06.887Z,99.90
2017-09-22T05:38:34.807Z,99.90
2017-09-22T05:41:02.616Z,99.90
2017-09-22T05:43:30.381Z,99.90
2017-09-22T05:45:58.825Z,99.90
2017-09-22T05:48:26.520Z,99.90
2017-09-22T05:50:55.956Z,99.90
2017-09-22T05:53:23.702Z,99.90
2017-09-22T05:55:51.371Z,99.90
2017-09-22T05:58:19.122Z,99.90
2017-09-22T06:00:46.782Z,99.90
2017-09-22T06:03:14.440Z,99.90
2017-09-22T06:05:42.944Z,99.90
2017-09-22T06:08:10.591Z,99.90
2017-09-22T06:10:38.221Z,99.90
2017-09-22T06:13:05.882Z,99.90
2017-09-22T06:15:33.547Z,99.90
2017-09-22T06:18:01.179Z,99.90
2017-09-22T06:20:28.827Z,99.90
2017-09-22T06:22:56.479Z,99.90
2017-09-22T06:25:24.902Z,99.90
2017-09-22T06:27:52.501Z,99.90
2017-09-22T06:30:20.161Z,99.90
2017-09-22T06:32:47.810Z,99.90
2017-09-22T06:35:15.533Z,99.90
2017-09-22T06:37:43.171Z,99.90
2017-09-22T06:40:10.838Z,99.90
2017-09-22T06:42:38.526Z,99.90
2017-09-22T06:45:06.123Z,99.90
2017-09-22T06:47:34.530Z,99.90
2017-09-22T06:50:02.139Z,99.90
2017-09-22T06:52:29.738Z,99.90
2017-09-22T06:54:57.430Z,99.90
2017-09-22T06:57:25.066Z,99.90
2017-09-22T06:59:52.721Z,99.90
2017-09-22T07:02:20.343Z,99.90
2017-09-22T07:04:48.007Z,99.90
2017-09-22T07:07:15.661Z,99.90
2017-09-22T07:09:43.369Z,99.90
2017-09-22T07:12:11.052Z,99.90
2017-09-22T07:14:38.648Z,99.70
2017-09-22T07:17:06.382Z,99.70
2017-09-22T07:19:34.225Z,99.80
2017-09-22T07:22:01.919Z,99.20
2017-09-22T07:24:29.572Z,97.80
2017-09-22T07:26:57.319Z,97.70
2017-09-22T07:29:24.994Z,96.70
2017-09-22T07:31:52.672Z,97.30
2017-09-22T07:34:20.419Z,97.70
2017-09-22T07:36:48.260Z,97.50
2017-09-22T07:39:15.944Z,96.70
2017-09-22T07:41:44.382Z,94.90
2017-09-22T07:44:12.244Z,94.90
2017-09-22T07:46:39.928Z,95.40
2017-09-22T07:49:07.642Z,95.50
2017-09-22T07:51:35.516Z,96.10
2017-09-22T07:54:03.169Z,96.40
2017-09-22T07:56:30.833Z,97.10
2017-09-22T07:58:59.252Z,97.50
2017-09-22T08:01:26.904Z,97.50
2017-09-22T08:03:54.566Z,97.40
2017-09-22T08:06:22.203Z,98.00
2017-09-22T08:08:49.840Z,98.00
2017-09-22T08:11:17.486Z,97.00
2017-09-22T08:13:45.130Z,96.80
2017-09-22T08:16:12.814Z,96.60
2017-09-22T08:18:40.530Z,96.30
2017-09-22T08:21:09.228Z,96.10
2017-09-22T08:23:36.894Z,95.90
2017-09-22T08:26:04.561Z,96.10
2017-09-22T08:28:32.221Z,95.90
2017-09-22T08:31:00.012Z,95.50
2017-09-22T08:33:27.729Z,95.60
2017-09-22T08:35:55.428Z,95.00
2017-09-22T08:38:23.136Z,95.10
2017-09-22T08:40:50.804Z,94.90
2017-09-22T08:43:18.508Z,95.10
2017-09-22T08:45:46.248Z,96.10
2017-09-22T08:48:13.961Z,95.60
2017-09-22T08:50:41.664Z,95.00
2017-09-22T08:53:09.378Z,94.60
2017-09-22T08:55:37.124Z,94.40
2017-09-22T08:58:04.853Z,93.90
2017-09-22T09:00:32.495Z,94.30
2017-09-22T09:03:01.235Z,94.30
2017-09-22T09:05:29.040Z,93.50
2017-09-22T09:07:56.796Z,93.40
2017-09-22T09:10:24.552Z,92.50
2017-09-22T09:12:52.471Z,88.10
2017-09-22T09:15:20.310Z,77.30
2017-09-22T09:17:48.012Z,67.10
2017-09-22T09:20:15.811Z,63.10
2017-09-22T09:22:43.644Z,57.40
2017-09-22T09:25:11.423Z,57.60
2017-09-22T09:27:39.089Z,58.90
2017-09-22T09:30:06.816Z,65.30
2017-09-22T09:32:34.589Z,70.70
2017-09-22T09:35:02.271Z,76.10
2017-09-22T09:37:31.560Z,76.70
2017-09-22T09:39:59.483Z,79.30
2017-09-22T09:42:27.194Z,77.60
2017-09-22T09:44:55.659Z,75.30
2017-09-22T09:47:23.393Z,75.30
2017-09-22T09:49:51.153Z,74.50
2017-09-22T09:52:19.055Z,74.40
2017-09-22T09:54:47.255Z,74.90
2017-09-22T09:57:17.744Z,71.90
2017-09-22T09:59:45.479Z,71.80
2017-09-22T10:02:13.169Z,73.60
2017-09-22T10:04:40.790Z,73.30
2017-09-22T10:07:08.439Z,65.70
2017-09-22T10:09:36.099Z,57.20
2017-09-22T10:12:03.839Z,56.00
2017-09-22T10:14:31.427Z,59.00
2017-09-22T10:16:59.108Z,63.30
2017-09-22T10:19:26.789Z,65.00
2017-09-22T10:21:54.421Z,69.60
2017-09-22T10:24:23.085Z,70.90
2017-09-22T10:26:50.778Z,65.50
2017-09-22T10:29:18.470Z,55.50
2017-09-22T10:31:46.083Z,51.30
2017-09-22T10:34:13.740Z,49.60
2017-09-22T10:36:41.336Z,52.20
2017-09-22T10:39:09.739Z,59.20
2017-09-22T10:41:37.396Z,59.70
2017-09-22T10:44:05.103Z,64.30
2017-09-22T10:46:32.727Z,68.40
2017-09-22T10:49:00.378Z,69.90
2017-09-22T10:51:28.731Z,65.00
2017-09-22T10:54:13.091Z,65.00
2017-09-22T10:56:44.220Z,64.00
2017-09-22T10:59:11.986Z,60.30
2017-09-22T11:01:39.611Z,53.80
2017-09-22T11:04:07.286Z,48.40
2017-09-22T11:06:34.886Z,47.60
2017-09-22T11:09:02.571Z,44.90
2017-09-22T11:11:30.229Z,43.90
2017-09-22T11:13:57.826Z,42.20
2017-09-22T11:16:25.595Z,41.50
2017-09-22T11:18:53.190Z,43.40
2017-09-22T11:21:20.791Z,42.70
2017-09-22T11:23:48.425Z,41.80
2017-09-22T11:26:16.023Z,41.60
2017-09-22T11:28:43.611Z,41.70
2017-09-22T11:31:10.739Z,39.00
2017-09-22T11:33:38.353Z,42.10
2017-09-22T11:36:06.015Z,42.30
2017-09-22T11:38:33.669Z,45.00
2017-09-22T11:41:02.182Z,53.40
2017-09-22T11:43:29.963Z,53.10
2017-09-22T11:45:57.606Z,56.10
2017-09-22T11:48:25.231Z,59.20
2017-09-22T11:50:52.924Z,60.60
2017-09-22T11:53:20.622Z,62.70
2017-09-22T11:55:48.259Z,65.30
2017-09-22T11:58:15.913Z,68.50
2017-09-22T12:00:43.569Z,66.70
2017-09-22T12:03:11.407Z,67.60
2017-09-22T12:05:39.127Z,69.10
2017-09-22T12:08:06.771Z,70.60
2017-09-22T12:10:34.409Z,71.10
2017-09-22T12:13:02.059Z,72.80
2017-09-22T12:15:29.700Z,74.20
2017-09-22T12:17:57.414Z,73.60
2017-09-22T12:20:25.250Z,75.10
2017-09-22T12:22:53.926Z,74.80
2017-09-22T12:25:21.821Z,74.80
2017-09-22T12:27:49.504Z,74.60
2017-09-22T12:30:17.126Z,74.50
2017-09-22T12:32:44.891Z,75.50
2017-09-22T12:35:12.547Z,74.60
2017-09-22T12:37:40.271Z,73.10
2017-09-22T12:40:07.946Z,69.20
2017-09-22T12:42:35.648Z,66.10
2017-09-22T12:45:03.309Z,65.40
2017-09-22T12:47:31.005Z,63.90
2017-09-22T12:49:58.649Z,64.20
2017-09-22T12:52:26.337Z,65.50
2017-09-22T12:54:54.142Z,60.50
2017-09-22T12:57:21.806Z,61.80
2017-09-22T12:59:49.445Z,64.10
2017-09-22T13:02:17.043Z,65.90
2017-09-22T13:04:44.667Z,69.40
2017-09-22T13:24:15.964Z,76.10
2017-09-22T13:26:43.610Z,76.20
2017-09-22T13:29:11.195Z,76.90
2017-09-22T13:31:38.842Z,78.30
2017-09-22T13:34:06.475Z,78.50
2017-09-22T13:36:34.152Z,80.60
2017-09-22T13:39:01.762Z,81.30
2017-09-22T13:41:29.361Z,81.80
2017-09-22T13:43:56.987Z,79.60
2017-09-22T13:46:24.721Z,81.20
2017-09-22T13:48:52.393Z,82.40
2017-09-22T13:51:20.063Z,81.40
2017-09-22T13:53:47.771Z,82.40
2017-09-22T13:56:15.414Z,83.00
2017-09-22T13:58:43.033Z,80.30
2017-09-22T14:01:11.423Z,78.10
2017-09-22T14:03:39.012Z,78.00
2017-09-22T14:06:06.638Z,76.90
2017-09-22T14:08:34.278Z,76.50
2017-09-22T14:11:01.872Z,75.40
2017-09-22T14:13:33.669Z,72.30
2017-09-22T14:16:01.331Z,72.20
2017-09-22T14:18:29.075Z,72.70
2017-09-22T14:20:56.695Z,72.30
2017-09-22T14:23:24.345Z,72.20
2017-09-22T14:25:52.088Z,71.40
2017-09-22T14:28:19.695Z,69.40
2017-09-22T14:30:47.341Z,71.20
2017-09-22T14:33:14.991Z,70.90
2017-09-22T14:35:42.649Z,71.70
2017-09-22T14:38:10.319Z,73.80
2017-09-22T14:40:37.953Z,74.70
2017-09-22T14:43:05.549Z,75.50
2017-09-22T14:45:33.208Z,76.40
2017-09-22T14:48:00.842Z,75.70
2017-09-22T14:50:29.193Z,75.40
2017-09-22T14:52:57.654Z,76.60
2017-09-22T14:55:25.277Z,76.50
2017-09-22T14:57:52.914Z,76.70
2017-09-22T15:00:20.557Z,77.30
2017-09-22T15:02:48.160Z,76.80
2017-09-22T15:05:15.784Z,77.90
2017-09-22T15:07:43.410Z,78.90
2017-09-22T15:10:11.039Z,80.70
2017-09-22T15:12:38.675Z,80.90
2017-09-22T15:15:06.321Z,83.90
2017-09-22T15:17:33.967Z,85.30
2017-09-22T15:20:01.584Z,86.50
2017-09-22T15:22:29.246Z,87.40
2017-09-22T15:24:56.979Z,87.10
2017-09-22T15:27:24.554Z,89.20
2017-09-22T15:29:52.187Z,90.70
2017-09-22T15:32:19.792Z,91.40
2017-09-22T15:34:47.386Z,91.60
2017-09-22T15:37:15.027Z,91.90
2017-09-22T15:39:42.772Z,92.30
2017-09-22T15:42:10.353Z,93.00
2017-09-22T15:44:37.967Z,94.00
2017-09-22T15:47:05.547Z,94.10
2017-09-22T15:49:33.139Z,94.40
2017-09-22T15:52:00.822Z,94.70
2017-09-22T15:54:28.425Z,95.60
2017-09-22T15:56:56.085Z,95.60
2017-09-22T15:59:23.740Z,95.50
2017-09-22T16:01:51.353Z,96.20
2017-09-22T16:04:18.940Z,95.80
2017-09-22T16:06:46.590Z,95.80
2017-09-22T16:09:14.224Z,96.40
2017-09-22T16:11:41.858Z,96.50
2017-09-22T16:14:10.122Z,96.80
2017-09-22T16:16:37.810Z,97.00
2017-09-22T16:19:06.200Z,96.60
2017-09-22T16:21:33.814Z,96.60
2017-09-22T16:24:01.442Z,97.40
2017-09-22T16:26:29.076Z,97.60
2017-09-22T16:28:56.706Z,98.20
2017-09-22T16:31:25.138Z,98.60
2017-09-22T16:33:52.808Z,98.60
2017-09-22T16:36:21.244Z,99.40
2017-09-22T16:38:48.882Z,99.40
2017-09-22T16:41:16.509Z,99.80
2017-09-22T16:43:44.163Z,99.60
2017-09-22T16:46:11.786Z,99.50
2017-09-22T16:48:39.429Z,99.90
2017-09-22T16:51:07.828Z,99.90
2017-09-22T16:53:35.584Z,99.90
2017-09-22T16:56:03.210Z,99.90
2017-09-22T16:58:30.844Z,99.90
2017-09-22T17:00:58.486Z,99.90
2017-09-22T17:03:26.119Z,99.90
2017-09-22T17:05:53.726Z,99.90
2017-09-22T17:08:26.573Z,99.90
2017-09-22T17:10:57.981Z,99.90
2017-09-22T17:13:25.676Z,99.90
2017-09-22T17:15:53.379Z,99.90
2017-09-22T17:18:21.799Z,99.90
2017-09-22T17:20:52.637Z,99.90
2017-09-22T17:23:20.284Z,99.90
2017-09-22T17:25:47.916Z,99.90
2017-09-22T17:28:15.560Z,99.90
2017-09-22T17:30:43.195Z,99.90
2017-09-22T17:33:10.903Z,99.90
2017-09-22T17:35:42.078Z,99.90
2017-09-22T17:38:09.699Z,99.90
2017-09-22T17:40:38.192Z,99.90
2017-09-22T17:43:05.826Z,99.90
2017-09-22T17:45:34.300Z,99.90
2017-09-22T17:48:02.679Z,99.90
2017-09-22T17:50:31.067Z,99.90
2017-09-22T17:52:58.876Z,99.90
2017-09-22T17:55:26.503Z,99.90
2017-09-22T17:57:54.130Z,99.90
2017-09-22T18:00:21.763Z,99.90
2017-09-22T18:02:49.393Z,99.90
2017-09-22T18:05:17.134Z,99.90
2017-09-22T18:07:44.759Z,99.90
2017-09-22T18:10:13.532Z,99.90
2017-09-22T18:12:41.152Z,99.90
2017-09-22T18:15:08.779Z,99.90
2017-09-22T18:17:36.419Z,99.90
2017-09-22T18:20:04.065Z,99.90
2017-09-22T18:22:31.730Z,99.90
2017-09-22T18:24:59.344Z,99.90
2017-09-22T18:27:26.978Z,99.90
2017-09-22T18:29:54.644Z,99.90
2017-09-22T18:32:22.402Z,99.90
2017-09-22T18:34:50.025Z,99.90
2017-09-22T18:37:17.650Z,99.90
2017-09-22T18:39:45.247Z,99.90
2017-09-22T18:42:12.862Z,99.90
2017-09-22T18:44:44.043Z,99.90
2017-09-22T18:47:11.669Z,99.90
2017-09-22T18:49:39.292Z,99.90
2017-09-22T18:52:06.914Z,99.90
2017-09-22T18:54:34.547Z,99.90
2017-09-22T18:57:02.201Z,99.90
2017-09-22T18:59:29.930Z,99.90
2017-09-22T19:01:57.606Z,99.90
2017-09-22T19:04:25.294Z,99.90
2017-09-22T19:06:52.918Z,99.90
2017-09-22T19:09:20.530Z,99.90
2017-09-22T19:11:48.924Z,99.90
2017-09-22T19:14:16.643Z,99.90
2017-09-22T19:16:44.328Z,99.90
2017-09-22T19:19:12.883Z,99.90
2017-09-22T19:21:40.560Z,99.90
2017-09-22T19:24:09.429Z,99.90
2017-09-22T19:26:37.056Z,99.90
2017-09-22T19:29:04.706Z,99.90
2017-09-22T19:31:32.389Z,99.90
2017-09-22T19:34:00.039Z,99.90
2017-09-22T19:36:27.638Z,99.90
2017-09-22T19:38:55.259Z,99.90
2017-09-22T19:41:24.355Z,99.90
2017-09-22T19:43:51.979Z,99.90
2017-09-22T19:46:19.608Z,99.90
2017-09-22T19:48:49.040Z,99.90
2017-09-22T19:54:25.693Z,99.90
2017-09-22T19:56:53.367Z,99.90
2017-09-22T19:59:21.033Z,99.90
2017-09-22T20:01:48.711Z,99.90
2017-09-22T20:04:16.383Z,99.90
2017-09-22T20:06:44.052Z,99.90
2017-09-22T20:09:11.729Z,99.90
2017-09-22T20:11:39.392Z,99.90
2017-09-22T20:14:07.063Z,99.90
2017-09-22T20:16:34.769Z,99.90
2017-09-22T20:19:02.471Z,99.90
2017-09-22T20:21:30.167Z,99.90
2017-09-22T20:23:57.854Z,99.90
2017-09-22T20:26:25.550Z,99.90
2017-09-22T20:28:53.256Z,99.90
2017-09-22T20:31:20.943Z,99.90
2017-09-22T20:33:48.623Z,99.90
2017-09-22T20:36:16.341Z,99.90
2017-09-22T20:38:44.025Z,99.90
2017-09-22T20:41:11.689Z,99.90
2017-09-22T20:43:39.362Z,99.90
2017-09-22T20:46:07.040Z,99.90
2017-09-22T20:48:35.272Z,99.90
2017-09-22T20:51:02.935Z,99.90
2017-09-22T20:53:30.815Z,99.90
2017-09-22T20:55:58.480Z,99.90
2017-09-22T20:58:26.162Z,99.90
2017-09-22T21:00:53.855Z,99.90
2017-09-22T21:03:21.551Z,99.90
2017-09-22T21:05:49.218Z,99.90
2017-09-22T21:08:17.356Z,99.90
2017-09-22T21:10:45.511Z,99.90
2017-09-22T21:13:13.179Z,99.90
2017-09-22T21:15:40.853Z,99.90
2017-09-22T21:18:08.528Z,99.90
2017-09-22T21:20:36.192Z,99.90
2017-09-22T21:23:03.897Z,99.90
2017-09-22T21:25:31.571Z,99.90
2017-09-22T21:27:59.259Z,99.90
2017-09-22T21:30:26.955Z,99.90
2017-09-22T21:32:54.638Z,99.90
2017-09-22T21:35:22.324Z,99.90
2017-09-22T21:37:50.017Z,99.90
2017-09-22T21:40:17.744Z,99.90
2017-09-22T21:42:45.459Z,99.90
2017-09-22T21:45:13.155Z,99.90
2017-09-22T21:47:40.865Z,99.90
2017-09-22T21:50:09.103Z,99.90
2017-09-22T21:52:36.807Z,99.90
2017-09-22T21:55:04.488Z,99.90
2017-09-22T21:57:32.222Z,99.90
2017-09-22T21:59:59.887Z,99.90
2017-09-22T22:02:27.502Z,99.90
2017-09-22T22:05:00.648Z,99.90
2017-09-22T22:07:30.247Z,99.90
2017-09-22T22:09:57.887Z,99.90
2017-09-22T22:12:25.622Z,99.90
2017-09-22T22:14:53.291Z,99.90
2017-09-22T22:17:20.930Z,99.90
2017-09-22T22:19:48.563Z,99.90
2017-09-22T22:22:16.318Z,99.90
2017-09-22T22:24:43.929Z,99.90
2017-09-22T22:27:11.624Z,99.90
2017-09-22T22:29:39.270Z,99.90
2017-09-22T22:32:07.002Z,99.90
2017-09-22T22:34:34.724Z,99.90
2017-09-22T22:37:05.257Z,99.90
2017-09-22T22:39:32.902Z,99.90
2017-09-22T22:42:00.573Z,99.90
2017-09-22T22:44:28.214Z,99.90
2017-09-22T22:46:56.104Z,99.90
2017-09-22T22:49:23.721Z,99.90
2017-09-22T22:51:51.382Z,99.90
2017-09-22T22:54:19.050Z,99.90
2017-09-22T22:56:46.752Z,99.90
2017-09-22T22:59:14.372Z,99.90
2017-09-22T23:01:42.026Z,99.90
2017-09-22T23:04:10.380Z,99.90
2017-09-22T23:06:38.023Z,99.90
2017-09-22T23:09:05.684Z,99.90
2017-09-22T23:11:33.314Z,99.90
2017-09-22T23:14:01.024Z,99.90
2017-09-22T23:16:28.611Z,99.90
2017-09-22T23:18:56.286Z,99.90
2017-09-22T23:21:24.783Z,99.90
2017-09-22T23:23:52.448Z,99.90
2017-09-22T23:26:20.142Z,99.90
2017-09-22T23:28:47.929Z,99.90
2017-09-22T23:31:15.631Z,99.90
2017-09-22T23:33:43.380Z,99.90
2017-09-22T23:36:11.003Z,99.90
2017-09-22T23:38:38.628Z,99.90
2017-09-22T23:41:06.271Z,99.90
2017-09-22T23:43:33.937Z,99.90
2017-09-22T23:46:01.605Z,99.90
2017-09-22T23:48:30.012Z,99.90
2017-09-22T23:50:57.647Z,99.90
2017-09-22T23:53:25.254Z,99.90
2017-09-22T23:55:52.900Z,99.90
2017-09-22T23:58:20.626Z,99.90
